createdAt,value
2023-05-08T00:00:08.160Z,43.28
2023-05-08T00:02:34.960Z,47.85
2023-05-08T00:05:01.836Z,17.67
2023-05-08T00:07:28.549Z,18.85
2023-05-08T00:09:55.293Z,16.05
2023-05-08T00:12:21.913Z,14.65
2023-05-08T00:48:09.510Z,11.77
2023-05-08T00:50:36.684Z,12.30
2023-05-08T00:53:04.456Z,12.65
2023-05-08T00:55:32.710Z,12.57
2023-05-08T00:57:59.707Z,12.40
2023-05-08T01:00:26.790Z,13.20
2023-05-08T01:02:53.828Z,11.75
2023-05-08T01:05:20.649Z,10.73
2023-05-08T01:07:47.487Z,11.48
2023-05-08T01:10:14.442Z,10.95
2023-05-08T01:12:44.526Z,12.88
2023-05-08T01:15:39.753Z,14.40
2023-05-08T01:18:35.641Z,13.93
2023-05-08T01:21:14.478Z,11.02
2023-05-08T01:24:13.103Z,12.82
2023-05-08T01:26:57.988Z,12.07
2023-05-08T01:30:01.318Z,12.32
2023-05-08T01:32:34.966Z,12.80
2023-05-08T01:35:10.768Z,14.52
2023-05-08T01:37:51.719Z,12.82
2023-05-08T01:40:45.515Z,11.77
2023-05-08T01:43:39.116Z,15.68
2023-05-08T01:46:13.436Z,13.30
2023-05-08T01:48:49.285Z,13.65
2023-05-08T01:51:23.725Z,17.13
2023-05-08T01:53:58.921Z,15.23
2023-05-08T01:56:28.509Z,15.98
2023-05-08T01:58:58.888Z,15.65
2023-05-08T02:01:29.117Z,13.98
2023-05-08T02:03:57.360Z,16.13
2023-05-08T02:06:26.814Z,14.95
2023-05-08T02:08:54.680Z,16.42
2023-05-08T02:11:24.663Z,14.32
2023-05-08T02:13:52.637Z,15.00
2023-05-08T02:16:20.851Z,15.10
2023-05-08T02:18:52.663Z,15.25
2023-05-08T02:21:20.651Z,15.00
2023-05-08T02:23:48.585Z,14.52
2023-05-08T02:26:16.410Z,14.00
2023-05-08T02:28:43.330Z,14.38
2023-05-08T02:31:12.037Z,15.75
2023-05-08T02:33:41.690Z,15.27
2023-05-08T02:36:10.836Z,15.55
2023-05-08T02:38:39.671Z,15.70
2023-05-08T02:41:07.960Z,14.70
2023-05-08T02:43:35.273Z,16.15
2023-05-08T02:46:14.558Z,14.10
2023-05-08T02:48:47.151Z,15.30
2023-05-08T02:51:37.624Z,16.10
2023-05-08T02:54:11.761Z,14.13
2023-05-08T02:57:01.642Z,13.18
2023-05-08T02:59:45.590Z,14.55
2023-05-08T03:02:35.444Z,12.18
2023-05-08T03:05:32.671Z,14.45
2023-05-08T03:08:08.017Z,13.07
2023-05-08T03:10:36.520Z,12.65
2023-05-08T03:13:05.786Z,11.45
2023-05-08T03:15:36.232Z,13.75
2023-05-08T03:18:07.386Z,12.45
2023-05-08T03:20:37.902Z,12.32
2023-05-08T03:23:06.572Z,13.63
2023-05-08T03:25:35.483Z,13.88
2023-05-08T03:28:04.989Z,12.68
2023-05-08T03:30:36.419Z,13.38
2023-05-08T03:33:05.252Z,40.38
2023-05-08T03:35:39.328Z,46.20
2023-05-08T03:38:06.732Z,55.78
2023-05-08T03:40:42.592Z,68.43
2023-05-08T03:43:10.190Z,56.08
2023-05-08T03:45:41.407Z,53.03
2023-05-08T03:48:09.288Z,74.07
2023-05-08T03:50:38.267Z,56.92
2023-05-08T03:53:05.464Z,68.97
2023-05-08T03:55:32.696Z,77.38
2023-05-08T03:58:35.537Z,61.17
2023-05-08T04:01:21.813Z,32.05
2023-05-08T04:04:22.063Z,24.95
2023-05-08T04:07:15.700Z,48.60
2023-05-08T04:10:03.242Z,89.05
2023-05-08T04:12:45.211Z,74.65
2023-05-08T04:15:20.553Z,46.20
2023-05-08T04:18:13.121Z,62.55
2023-05-08T04:20:41.844Z,35.45
2023-05-08T04:23:10.928Z,41.00
2023-05-08T04:25:39.757Z,49.58
2023-05-08T04:28:06.455Z,51.50
2023-05-08T04:30:33.750Z,25.85
2023-05-08T04:33:04.209Z,25.92
2023-05-08T04:35:31.328Z,16.90
2023-05-08T04:37:59.460Z,12.25
2023-05-08T04:40:26.477Z,14.77
2023-05-08T04:42:53.170Z,13.80
2023-05-08T04:45:20.156Z,13.02
2023-05-08T04:47:46.896Z,15.45
2023-05-08T04:50:13.642Z,13.70
2023-05-08T04:52:40.218Z,14.77
2023-05-08T04:55:07.540Z,19.35
2023-05-08T04:57:34.204Z,15.68
2023-05-08T05:00:00.973Z,19.45
2023-05-08T05:02:27.625Z,17.17
2023-05-08T05:04:54.222Z,16.60
2023-05-08T05:07:20.886Z,19.33
2023-05-08T05:09:47.539Z,14.07
2023-05-08T05:12:14.393Z,15.00
2023-05-08T05:14:41.070Z,17.88
2023-05-08T05:17:08.310Z,15.45
2023-05-08T05:19:35.004Z,14.60
2023-05-08T05:22:01.894Z,16.27
2023-05-08T05:24:28.586Z,17.63
2023-05-08T05:26:55.263Z,14.57
2023-05-08T05:29:21.852Z,15.65
2023-05-08T05:31:48.544Z,16.85
2023-05-08T05:34:15.467Z,13.77
2023-05-08T05:36:42.133Z,14.70
2023-05-08T05:39:08.794Z,17.38
2023-05-08T05:41:36.243Z,18.88
2023-05-08T05:44:03.126Z,17.52
2023-05-08T05:46:32.634Z,18.85
2023-05-08T05:48:59.561Z,20.65
2023-05-08T05:51:27.629Z,15.07
2023-05-08T05:53:54.320Z,25.52
2023-05-08T05:56:21.761Z,21.05
2023-05-08T05:58:48.560Z,19.73
2023-05-08T06:01:15.333Z,22.42
2023-05-08T06:03:42.069Z,20.60
2023-05-08T06:06:08.896Z,16.35
2023-05-08T06:08:35.507Z,15.65
2023-05-08T06:11:02.284Z,18.63
2023-05-08T06:13:28.932Z,20.15
2023-05-08T06:15:56.572Z,20.88
2023-05-08T06:18:23.614Z,22.73
2023-05-08T06:20:56.718Z,36.53
2023-05-08T06:23:23.539Z,58.35
2023-05-08T06:25:50.214Z,79.75
2023-05-08T06:28:16.920Z,66.07
2023-05-08T06:30:43.590Z,96.07
2023-05-08T06:33:11.163Z,65.88
2023-05-08T06:35:37.818Z,51.13
2023-05-08T06:38:04.502Z,26.05
2023-05-08T06:40:31.349Z,30.85
2023-05-08T06:42:57.970Z,24.98
2023-05-08T06:45:24.573Z,65.13
2023-05-08T06:47:51.339Z,18.77
2023-05-08T06:50:18.023Z,23.95
2023-05-08T06:52:44.624Z,39.85
2023-05-08T06:55:11.631Z,33.05
2023-05-08T06:57:38.425Z,31.27
2023-05-08T07:00:06.137Z,41.53
2023-05-08T07:02:32.821Z,40.15
2023-05-08T07:04:59.622Z,20.58
2023-05-08T07:07:26.372Z,38.13
2023-05-08T07:09:53.022Z,28.23
2023-05-08T07:12:19.678Z,37.25
2023-05-08T07:14:46.380Z,31.23
2023-05-08T07:17:13.025Z,27.67
2023-05-08T07:19:39.700Z,36.08
2023-05-08T07:22:06.671Z,38.97
2023-05-08T07:24:33.664Z,35.85
2023-05-08T07:27:00.685Z,34.42
2023-05-08T07:29:27.503Z,29.45
2023-05-08T07:31:54.228Z,40.13
2023-05-08T07:34:21.263Z,36.72
2023-05-08T07:36:48.072Z,36.80
2023-05-08T07:39:14.802Z,30.65
2023-05-08T07:41:41.923Z,40.00
2023-05-08T07:44:08.749Z,30.98
2023-05-08T07:46:35.515Z,44.65
2023-05-08T07:49:02.325Z,38.50
2023-05-08T07:51:30.048Z,41.20
2023-05-08T07:53:56.736Z,43.95
2023-05-08T07:56:23.507Z,41.05
2023-05-08T07:58:50.254Z,44.70
2023-05-08T08:01:18.190Z,45.80
2023-05-08T08:03:48.261Z,48.35
2023-05-08T08:06:14.953Z,40.78
2023-05-08T08:08:41.645Z,39.97
2023-05-08T08:11:08.548Z,39.65
2023-05-08T08:13:35.233Z,44.78
2023-05-08T08:16:04.122Z,47.65
2023-05-08T08:18:33.788Z,50.00
2023-05-08T08:21:00.369Z,48.88
2023-05-08T08:23:27.369Z,51.10
2023-05-08T08:25:54.380Z,47.25
2023-05-08T08:28:21.100Z,47.80
2023-05-08T08:30:47.795Z,47.08
2023-05-08T08:33:15.841Z,48.03
2023-05-08T08:35:44.158Z,50.80
2023-05-08T08:38:10.769Z,43.92
2023-05-08T08:40:41.315Z,48.28
2023-05-08T08:43:08.911Z,44.83
2023-05-08T08:45:37.138Z,43.00
2023-05-08T08:48:04.755Z,41.03
2023-05-08T08:50:35.826Z,45.17
2023-05-08T08:53:25.796Z,41.88
2023-05-08T08:55:55.937Z,44.22
2023-05-08T08:58:59.452Z,38.20
2023-05-08T09:01:29.312Z,45.13
2023-05-08T09:03:59.762Z,46.38
2023-05-08T09:06:27.635Z,40.33
2023-05-08T09:08:56.925Z,42.72
2023-05-08T09:11:24.502Z,42.60
2023-05-08T09:13:51.588Z,46.45
2023-05-08T09:16:18.641Z,49.08
2023-05-08T09:18:45.309Z,48.60
2023-05-08T09:21:12.557Z,49.60
2023-05-08T09:23:58.867Z,55.58
2023-05-08T09:26:33.845Z,43.92
2023-05-08T09:29:22.047Z,44.60
2023-05-08T09:31:50.826Z,53.55
2023-05-08T09:34:33.159Z,49.58
2023-05-08T09:37:05.918Z,54.03
2023-05-08T09:39:32.653Z,45.88
2023-05-08T09:42:04.272Z,57.22
2023-05-08T09:44:49.609Z,54.88
2023-05-08T09:47:24.237Z,56.33
2023-05-08T09:50:01.105Z,63.22
2023-05-08T09:52:29.285Z,54.28
2023-05-08T09:55:09.833Z,55.35
2023-05-08T09:57:39.183Z,64.13
2023-05-08T10:00:10.201Z,60.35
2023-05-08T10:02:38.431Z,76.78
2023-05-08T10:05:22.042Z,69.95
2023-05-08T10:07:48.739Z,65.25
2023-05-08T10:10:26.873Z,68.80
2023-05-08T10:12:58.358Z,70.15
2023-05-08T10:18:01.103Z,67.07
2023-05-08T10:20:30.261Z,73.88
2023-05-08T10:22:57.987Z,76.25
2023-05-08T10:25:25.959Z,75.78
2023-05-08T10:27:58.307Z,76.65
2023-05-08T10:30:26.048Z,80.72
2023-05-08T10:32:58.300Z,85.32
2023-05-08T10:35:25.851Z,91.20
2023-05-08T10:37:53.754Z,88.18
2023-05-08T10:40:21.353Z,79.82
2023-05-08T10:42:49.025Z,84.47
2023-05-08T10:45:15.836Z,83.78
2023-05-08T10:47:53.144Z,81.80
2023-05-08T10:50:31.144Z,73.07
2023-05-08T10:53:17.048Z,70.45
2023-05-08T10:55:49.981Z,70.22
2023-05-08T10:58:32.812Z,72.20
2023-05-08T11:01:07.865Z,65.88
2023-05-08T11:03:50.648Z,67.07
2023-05-08T11:06:48.827Z,75.00
2023-05-08T11:09:30.296Z,69.50
2023-05-08T11:12:07.490Z,70.20
2023-05-08T11:14:36.441Z,71.25
2023-05-08T11:17:04.443Z,71.43
2023-05-08T11:19:31.389Z,75.30
2023-05-08T11:22:15.151Z,73.82
2023-05-08T11:24:55.743Z,71.15
2023-05-08T11:27:51.544Z,72.03
2023-05-08T11:30:32.964Z,73.10
2023-05-08T11:33:06.213Z,73.78
2023-05-08T11:35:57.081Z,69.22
2023-05-08T11:38:28.062Z,78.70
2023-05-08T11:41:03.575Z,75.10
2023-05-08T11:43:33.253Z,78.22
2023-05-08T11:46:05.666Z,76.63
2023-05-08T11:48:32.848Z,69.30
2023-05-08T11:51:00.391Z,66.00
2023-05-08T11:53:27.799Z,63.38
2023-05-08T11:55:54.983Z,68.82
2023-05-08T11:58:21.966Z,66.75
2023-05-08T12:00:49.450Z,63.00
2023-05-08T12:03:19.080Z,62.00
2023-05-08T12:05:46.460Z,56.45
2023-05-08T12:08:14.565Z,59.05
2023-05-08T12:10:53.066Z,61.10
2023-05-08T12:13:23.801Z,59.20
2023-05-08T12:15:53.539Z,67.25
2023-05-08T12:18:21.700Z,65.63
2023-05-08T12:20:53.325Z,65.60
2023-05-08T12:23:20.416Z,65.55
2023-05-08T12:25:47.087Z,63.08
2023-05-08T12:28:13.861Z,59.25
2023-05-08T12:30:41.001Z,58.53
2023-05-08T12:33:08.266Z,58.65
2023-05-08T12:35:34.973Z,56.63
2023-05-08T12:38:07.871Z,52.95
2023-05-08T12:40:36.155Z,51.83
2023-05-08T12:43:03.928Z,54.85
2023-05-08T12:45:34.074Z,52.08
2023-05-08T12:48:06.441Z,46.88
2023-05-08T12:50:38.702Z,45.38
2023-05-08T12:53:18.708Z,43.55
2023-05-08T12:55:56.883Z,46.60
2023-05-08T12:58:41.527Z,48.25
2023-05-08T13:01:13.388Z,47.90
2023-05-08T13:03:41.315Z,48.05
2023-05-08T13:06:19.685Z,44.45
2023-05-08T13:08:52.295Z,47.72
2023-05-08T13:11:30.577Z,44.95
2023-05-08T13:13:57.252Z,39.42
2023-05-08T13:16:23.947Z,35.28
2023-05-08T13:18:50.648Z,37.17
2023-05-08T13:21:17.390Z,39.03
2023-05-08T13:23:44.103Z,39.35
2023-05-08T13:26:10.711Z,36.28
2023-05-08T13:28:37.317Z,35.05
2023-05-08T13:31:03.942Z,36.78
2023-05-08T13:33:30.538Z,40.85
2023-05-08T13:35:57.203Z,42.95
2023-05-08T13:38:23.858Z,35.83
2023-05-08T13:40:50.673Z,33.28
2023-05-08T13:43:17.456Z,36.15
2023-05-08T13:45:44.148Z,33.58
2023-05-08T13:48:10.871Z,31.13
2023-05-08T13:50:37.599Z,32.90
2023-05-08T13:53:04.772Z,37.70
2023-05-08T13:55:31.894Z,32.95
2023-05-08T13:57:58.911Z,29.33
2023-05-08T14:00:27.931Z,34.15
2023-05-08T14:02:55.137Z,33.28
2023-05-08T14:05:22.082Z,36.25
2023-05-08T14:07:48.808Z,34.80
2023-05-08T14:10:17.113Z,32.60
2023-05-08T14:12:43.928Z,37.08
2023-05-08T14:15:11.782Z,36.63
2023-05-08T14:17:38.766Z,32.60
2023-05-08T14:20:06.607Z,34.28
2023-05-08T14:22:33.237Z,35.17
2023-05-08T14:24:59.984Z,35.33
2023-05-08T14:27:26.680Z,35.63
2023-05-08T14:29:54.139Z,34.75
2023-05-08T14:32:21.014Z,35.38
2023-05-08T14:34:47.761Z,33.22
2023-05-08T14:37:14.445Z,38.90
2023-05-08T14:39:41.022Z,36.67
2023-05-08T14:44:37.484Z,34.90
2023-05-08T14:47:04.200Z,34.10
2023-05-08T14:49:38.149Z,36.42
2023-05-08T14:52:06.432Z,33.28
2023-05-08T14:54:33.721Z,34.78
2023-05-08T14:57:00.613Z,30.75
2023-05-08T14:59:27.225Z,33.55
2023-05-08T15:01:54.113Z,32.53
2023-05-08T15:04:20.981Z,32.25
2023-05-08T15:06:47.902Z,32.00
2023-05-08T15:09:16.448Z,32.58
2023-05-08T15:11:43.348Z,32.03
2023-05-08T15:14:09.967Z,38.30
2023-05-08T15:16:36.833Z,33.60
2023-05-08T15:19:03.659Z,34.72
2023-05-08T15:21:31.027Z,36.60
2023-05-08T15:23:57.770Z,35.67
2023-05-08T15:26:24.391Z,35.35
2023-05-08T15:28:51.050Z,34.53
2023-05-08T15:31:18.612Z,35.17
2023-05-08T15:33:45.766Z,36.78
2023-05-08T15:36:15.845Z,33.47
2023-05-08T15:38:43.045Z,36.75
2023-05-08T15:41:14.714Z,36.85
2023-05-08T15:43:42.341Z,37.55
2023-05-08T15:46:09.160Z,37.45
2023-05-08T15:48:36.170Z,39.08
2023-05-08T15:51:02.814Z,40.63
2023-05-08T15:53:29.504Z,38.42
2023-05-08T15:55:57.010Z,40.05
2023-05-08T15:58:24.013Z,51.05
2023-05-08T16:00:50.748Z,48.90
2023-05-08T16:03:17.739Z,52.50
2023-05-08T16:05:44.665Z,52.92
2023-05-08T16:08:12.859Z,59.33
2023-05-08T16:10:40.615Z,56.97
2023-05-08T16:13:07.942Z,62.90
2023-05-08T16:15:34.727Z,73.97
2023-05-08T16:18:01.465Z,73.57
2023-05-08T16:20:28.203Z,76.38
2023-05-08T16:22:55.895Z,85.25
2023-05-08T16:25:22.930Z,88.13
2023-05-08T16:27:49.740Z,94.35
2023-05-08T16:30:17.102Z,96.72
2023-05-08T16:32:47.239Z,98.72
2023-05-08T16:35:14.856Z,93.45
2023-05-08T16:37:41.933Z,96.43
2023-05-08T16:40:09.580Z,92.63
2023-05-08T16:42:36.947Z,94.45
2023-05-08T16:45:04.958Z,90.50
2023-05-08T16:47:31.955Z,96.72
2023-05-08T16:49:58.720Z,86.85
2023-05-08T16:52:25.873Z,84.85
2023-05-08T16:54:53.003Z,89.93
2023-05-08T16:57:19.709Z,93.13
2023-05-08T16:59:46.345Z,84.45
2023-05-08T17:02:18.369Z,92.03
2023-05-08T17:04:49.003Z,91.07
2023-05-08T17:07:16.124Z,86.47
2023-05-08T17:09:43.419Z,103.57
2023-05-08T17:12:10.446Z,90.57
2023-05-08T17:14:39.383Z,105.90
2023-05-08T17:17:06.966Z,99.20
2023-05-08T17:19:33.737Z,107.70
2023-05-08T17:22:00.469Z,105.28
2023-05-08T17:24:27.478Z,102.75
2023-05-08T17:26:54.172Z,104.85
2023-05-08T17:29:20.887Z,102.32
2023-05-08T17:31:47.633Z,96.35
2023-05-08T17:34:14.370Z,94.65
2023-05-08T17:36:41.053Z,89.50
2023-05-08T17:39:07.782Z,91.60
2023-05-08T17:41:34.457Z,88.60
2023-05-08T17:44:01.140Z,81.88
2023-05-08T17:46:27.743Z,84.07
2023-05-08T17:48:54.396Z,86.38
2023-05-08T17:51:21.097Z,71.68
2023-05-08T17:53:47.805Z,76.15
2023-05-08T17:56:16.311Z,71.90
2023-05-08T17:58:43.520Z,68.20
2023-05-08T18:01:10.206Z,66.45
2023-05-08T18:03:36.939Z,63.83
2023-05-08T18:06:03.697Z,54.47
2023-05-08T18:08:30.445Z,56.20
2023-05-08T18:10:57.061Z,50.13
2023-05-08T18:13:23.737Z,55.50
2023-05-08T18:15:50.616Z,63.28
2023-05-08T18:18:17.326Z,69.40
2023-05-08T18:20:43.953Z,69.85
2023-05-08T18:23:10.693Z,75.65
2023-05-08T18:25:37.297Z,78.40
2023-05-08T18:28:04.017Z,74.07
2023-05-08T18:30:31.460Z,77.78
2023-05-08T18:32:58.212Z,76.57
2023-05-08T18:35:24.939Z,77.82
2023-05-08T18:37:51.673Z,77.72
2023-05-08T18:40:18.417Z,74.38
2023-05-08T18:42:45.072Z,73.45
2023-05-08T18:45:12.023Z,81.60
2023-05-08T18:47:38.729Z,73.68
2023-05-08T18:50:05.865Z,78.78
2023-05-08T18:52:32.582Z,74.35
2023-05-08T18:54:59.287Z,76.05
2023-05-08T18:57:25.950Z,75.13
2023-05-08T18:59:52.875Z,77.85
2023-05-08T19:02:19.568Z,75.80
2023-05-08T19:04:46.412Z,79.85
2023-05-08T19:07:13.004Z,76.72
2023-05-08T19:09:39.590Z,80.97
2023-05-08T19:12:06.275Z,73.00
2023-05-08T19:14:32.884Z,81.82
2023-05-08T19:16:59.605Z,82.28
2023-05-08T19:19:26.296Z,82.43
2023-05-08T19:21:53.000Z,85.05
2023-05-08T19:24:20.855Z,81.70
2023-05-08T19:26:47.709Z,77.68
2023-05-08T19:29:14.306Z,86.05
2023-05-08T19:31:41.209Z,92.05
2023-05-08T19:34:08.049Z,79.70
2023-05-08T19:36:37.485Z,81.22
2023-05-08T19:39:04.453Z,75.40
2023-05-08T19:41:31.159Z,81.03
2023-05-08T19:43:57.853Z,68.25
2023-05-08T19:46:24.787Z,76.72
2023-05-08T19:48:51.627Z,83.80
2023-05-08T19:51:18.328Z,76.25
2023-05-08T19:53:44.960Z,81.13
2023-05-08T19:56:11.599Z,70.20
2023-05-08T19:58:38.252Z,71.10
2023-05-08T20:01:04.997Z,64.97
2023-05-08T20:03:31.919Z,63.80
2023-05-08T20:05:58.623Z,63.85
2023-05-08T20:08:25.392Z,58.75
2023-05-08T20:10:52.242Z,61.05
2023-05-08T20:13:18.990Z,59.88
2023-05-08T20:15:45.893Z,65.32
2023-05-08T20:18:12.626Z,56.58
2023-05-08T20:20:39.281Z,56.08
2023-05-08T20:23:05.939Z,58.60
2023-05-08T20:25:32.620Z,55.47
2023-05-08T20:27:59.267Z,58.67
2023-05-08T20:30:25.947Z,52.58
2023-05-08T20:32:52.779Z,53.83
2023-05-08T20:35:19.623Z,48.45
2023-05-08T20:37:47.897Z,51.33
2023-05-08T20:40:15.514Z,49.20
2023-05-08T20:42:42.541Z,43.40
2023-05-08T20:45:09.945Z,49.95
2023-05-08T20:47:36.766Z,42.65
2023-05-08T20:50:04.176Z,44.97
2023-05-08T20:52:35.322Z,42.22
2023-05-08T20:55:04.464Z,41.60
2023-05-08T20:57:31.118Z,41.05
2023-05-08T20:59:57.748Z,42.00
2023-05-08T21:02:24.578Z,41.70
2023-05-08T21:04:52.659Z,40.05
2023-05-08T21:07:19.433Z,44.63
2023-05-08T21:09:46.160Z,41.33
2023-05-08T21:12:12.828Z,41.30
2023-05-08T21:14:39.537Z,40.90
2023-05-08T21:17:06.220Z,37.63
2023-05-08T21:19:32.866Z,38.15
2023-05-08T21:21:59.547Z,36.85
2023-05-08T21:24:26.276Z,37.70
2023-05-08T21:26:53.436Z,45.45
2023-05-08T21:29:20.242Z,40.70
2023-05-08T21:31:46.926Z,41.28
2023-05-08T21:34:14.815Z,48.67
2023-05-08T21:36:41.613Z,39.80
2023-05-08T21:39:08.788Z,38.38
2023-05-08T21:41:35.393Z,36.20
2023-05-08T21:44:02.084Z,42.17
2023-05-08T21:46:28.765Z,43.38
2023-05-08T21:48:55.461Z,39.40
2023-05-08T21:51:22.109Z,40.65
2023-05-08T21:53:48.887Z,40.17
2023-05-08T21:56:16.521Z,39.00
2023-05-08T21:58:43.214Z,45.08
2023-05-08T22:01:09.935Z,41.05
2023-05-08T22:03:36.968Z,40.58
2023-05-08T22:06:03.969Z,38.53
2023-05-08T22:08:30.696Z,45.90
2023-05-08T22:10:57.642Z,39.85
2023-05-08T22:13:24.354Z,43.20
2023-05-08T22:15:51.103Z,40.33
2023-05-08T22:18:18.002Z,41.60
2023-05-08T22:20:44.703Z,41.85
2023-05-08T22:23:11.361Z,41.25
2023-05-08T22:25:38.114Z,40.30
2023-05-08T22:28:04.836Z,39.63
2023-05-08T22:30:31.462Z,41.78
2023-05-08T22:32:59.435Z,37.22
2023-05-08T22:35:27.603Z,42.83
2023-05-08T22:37:55.533Z,38.15
2023-05-08T22:40:22.908Z,44.63
2023-05-08T22:42:51.558Z,43.50
2023-05-08T22:45:18.666Z,39.55
2023-05-08T22:47:45.900Z,43.95
2023-05-08T22:50:12.616Z,39.05
2023-05-08T22:52:39.602Z,40.05
2023-05-08T22:55:07.115Z,39.42
2023-05-08T22:57:33.919Z,41.25
2023-05-08T23:00:00.715Z,39.85
2023-05-08T23:02:34.740Z,42.30
2023-05-08T23:05:02.235Z,43.80
2023-05-08T23:07:29.172Z,38.25
2023-05-08T23:09:55.919Z,41.20
2023-05-08T23:12:22.599Z,38.03
2023-05-08T23:14:49.240Z,38.38
2023-05-08T23:17:15.954Z,38.63
2023-05-08T23:19:42.727Z,40.95
2023-05-08T23:22:09.698Z,40.33
2023-05-08T23:24:36.885Z,43.03
2023-05-08T23:27:03.661Z,47.80
2023-05-08T23:29:30.319Z,46.30
2023-05-08T23:31:56.926Z,50.65
2023-05-08T23:34:23.584Z,44.28
2023-05-08T23:36:50.420Z,44.28
2023-05-08T23:39:17.184Z,43.83
2023-05-08T23:41:43.853Z,45.78
2023-05-08T23:44:10.476Z,45.08
2023-05-08T23:46:37.115Z,48.03
2023-05-08T23:49:05.451Z,50.63
2023-05-08T23:51:32.662Z,47.97
2023-05-08T23:53:59.257Z,52.90
2023-05-08T23:56:26.935Z,52.35
2023-05-08T23:58:53.622Z,54.42
